Time;durP1;ratioP1;P1;durP2;ratioP2;P2;SDS_P1;SDS_P2;PMS_P1;PMS_P2;Temp;Humidity;BMP_temperature;BMP_pressure;BME280_temperature;BME280_humidity;BME280_pressure;Samples;Min_cycle;Max_cycle;Signal;HPM_P1;HPM_P2
2023/08/07 00:01:06;;;;;;;1.88;1.77;;;29.40;54.10;;;;;;4992547;28;20055;-72
2023/08/07 00:03:33;;;;;;;2.15;1.92;;;29.20;54.10;;;;;;4992570;28;20482;-72
2023/08/07 00:05:59;;;;;;;2.35;2.03;;;29.30;54.10;;;;;;5007653;28;20089;-71
2023/08/07 00:08:25;;;;;;;1.98;1.77;;;29.20;54.40;;;;;;4992646;28;20053;-72
2023/08/07 00:10:51;;;;;;;2.35;2.15;;;29.30;54.50;;;;;;5007670;28;20031;-72
2023/08/07 00:13:17;;;;;;;2.45;2.25;;;29.30;54.50;;;;;;4992422;28;20453;-72
2023/08/07 00:15:44;;;;;;;2.35;2.05;;;29.30;54.50;;;;;;4992426;28;20446;-71
2023/08/07 00:18:10;;;;;;;1.58;1.48;;;29.40;54.60;;;;;;4992390;28;20030;-72
2023/08/07 00:20:39;;;;;;;2.72;1.73;;;29.30;54.60;;;;;;4992503;28;20034;-72
2023/08/07 00:23:05;;;;;;;2.75;2.28;;;29.30;54.60;;;;;;4992319;28;20037;-72
2023/08/07 00:25:31;;;;;;;1.92;1.83;;;29.40;54.70;;;;;;4992275;28;20046;-72
2023/08/07 00:27:57;;;;;;;2.97;2.33;;;29.20;54.70;;;;;;4992273;28;20045;-70
2023/08/07 00:30:23;;;;;;;2.75;2.10;;;29.40;54.70;;;;;;4992281;28;20030;-72
2023/08/07 00:32:49;;;;;;;2.13;1.98;;;29.30;54.70;;;;;;4992133;28;20406;-71
2023/08/07 00:35:15;;;;;;;3.05;2.75;;;29.40;54.80;;;;;;4992382;28;20034;-72
2023/08/07 00:37:41;;;;;;;2.20;2.00;;;29.30;54.80;;;;;;4992031;28;20041;-72
2023/08/07 00:40:08;;;;;;;2.08;1.92;;;29.30;54.80;;;;;;5007118;28;20073;-71
2023/08/07 00:42:34;;;;;;;3.28;1.75;;;29.40;54.80;;;;;;4990626;28;20035;-72
2023/08/07 00:45:01;;;;;;;2.47;1.95;;;29.40;54.80;;;;;;5006984;28;20073;-72
2023/08/07 00:47:28;;;;;;;2.92;1.90;;;29.40;54.80;;;;;;4990453;28;20110;-72
2023/08/07 00:49:55;;;;;;;2.28;2.05;;;29.30;54.80;;;;;;4991978;28;20188;-71
2023/08/07 00:52:21;;;;;;;2.13;1.92;;;29.40;54.80;;;;;;4990648;28;20173;-72
2023/08/07 00:54:48;;;;;;;2.60;2.00;;;29.20;54.60;;;;;;4990497;28;20468;-72
2023/08/07 00:57:16;;;;;;;2.35;2.15;;;29.10;54.60;;;;;;4990487;28;20031;-72
2023/08/07 00:59:43;;;;;;;2.63;2.00;;;29.20;54.60;;;;;;4989789;28;20582;-70
2023/08/07 01:02:12;;;;;;;2.20;2.00;;;29.10;54.70;;;;;;4991558;28;20030;-71
2023/08/07 01:04:38;;;;;;;1.80;1.70;;;29.30;54.90;;;;;;4991659;28;20048;-71
2023/08/07 01:07:04;;;;;;;3.65;2.00;;;29.10;55.00;;;;;;4991546;28;20038;-71
2023/08/07 01:09:31;;;;;;;2.60;2.20;;;29.30;55.00;;;;;;4991500;28;20043;-72
2023/08/07 01:12:29;;;;;;;2.28;2.08;;;29.20;55.00;;;;;;4990246;28;20062;-71
2023/08/07 01:15:02;;;;;;;3.30;1.98;;;29.10;55.00;;;;;;4950477;29;20471;-71
2023/08/07 01:17:29;;;;;;;2.80;2.22;;;29.30;55.10;;;;;;4950265;29;20043;-71
2023/08/07 01:19:57;;;;;;;2.40;2.20;;;29.20;55.10;;;;;;4950496;28;20051;-71
2023/08/07 01:22:23;;;;;;;2.58;2.38;;;29.10;55.10;;;;;;4950326;28;20032;-71
2023/08/07 01:24:50;;;;;;;2.75;2.40;;;29.30;55.10;;;;;;4950265;28;20062;-71
2023/08/07 01:27:29;;;;;;;;;;;;;;;;;;;;;
2023/08/07 01:30:07;;;;;;;2.67;2.40;;;29.30;55.10;;;;;;4950258;28;20527;-71
2023/08/07 01:32:41;;;;;;;4.07;2.83;;;29.20;55.20;;;;;;4934333;29;20055;-71
2023/08/07 01:35:11;;;;;;;3.95;3.28;;;29.30;55.20;;;;;;4950200;28;20926;-71
2023/08/07 01:37:44;;;;;;;2.72;2.20;;;29.30;55.20;;;;;;4950062;28;20047;-72
2023/08/07 01:40:12;;;;;;;4.30;3.08;;;29.30;55.20;;;;;;4950324;28;20035;-72
2023/08/07 01:42:38;;;;;;;3.53;3.22;;;29.40;55.20;;;;;;4934358;29;20118;-71
2023/08/07 01:45:06;;;;;;;3.38;3.10;;;29.20;55.20;;;;;;4949738;28;20059;-71
2023/08/07 01:47:32;;;;;;;3.83;3.42;;;29.30;55.10;;;;;;4933766;29;20047;-71
2023/08/07 01:49:59;;;;;;;2.97;2.67;;;29.30;55.20;;;;;;4949843;28;20047;-71
2023/08/07 01:52:28;;;;;;;6.10;3.72;;;29.30;55.20;;;;;;4991318;28;20598;-70
2023/08/07 01:54:55;;;;;;;4.95;3.15;;;29.30;55.10;;;;;;4991170;28;20034;-71
2023/08/07 01:57:21;;;;;;;3.75;2.97;;;29.30;55.00;;;;;;5021370;28;20049;-71
2023/08/07 01:59:47;;;;;;;4.88;3.03;;;29.40;55.10;;;;;;4990006;28;20039;-71
2023/08/07 02:02:13;;;;;;;3.55;3.00;;;29.10;55.10;;;;;;4989870;28;20046;-71
2023/08/07 02:04:39;;;;;;;2.28;1.98;;;29.20;55.20;;;;;;4973714;28;20395;-71
2023/08/07 02:07:05;;;;;;;5.05;3.38;;;29.20;55.40;;;;;;5006020;28;20041;-71
2023/08/07 02:09:31;;;;;;;2.95;2.25;;;29.00;55.40;;;;;;4991019;28;20022;-71
2023/08/07 02:11:57;;;;;;;2.05;1.85;;;29.10;55.40;;;;;;4991228;28;20088;-71
2023/08/07 02:14:23;;;;;;;2.38;2.00;;;29.10;55.40;;;;;;4994621;28;20038;-71
2023/08/07 02:16:50;;;;;;;8.85;3.10;;;29.20;55.50;;;;;;4993293;28;20125;-71
2023/08/07 02:19:16;;;;;;;5.25;2.60;;;29.20;55.50;;;;;;5025116;28;20049;-71
2023/08/07 02:21:42;;;;;;;6.15;2.22;;;29.20;55.50;;;;;;4993332;28;20038;-71
2023/08/07 02:24:08;;;;;;;4.60;3.30;;;29.20;55.50;;;;;;4994526;28;20057;-71
2023/08/07 02:26:38;;;;;;;1.73;1.63;;;29.20;55.60;;;;;;4993358;28;20080;-71
2023/08/07 02:29:06;;;;;;;1.90;1.63;;;29.30;55.60;;;;;;4992885;28;20042;-71
2023/08/07 02:31:32;;;;;;;2.47;1.88;;;29.20;55.60;;;;;;4994613;28;20042;-71
2023/08/07 02:33:58;;;;;;;1.60;1.50;;;29.20;55.60;;;;;;4994162;28;20046;-72
2023/08/07 02:36:24;;;;;;;2.78;1.80;;;29.20;55.60;;;;;;5009376;28;20088;-69
2023/08/07 02:38:50;;;;;;;2.72;1.67;;;29.40;55.50;;;;;;4992961;28;20038;-69
2023/08/07 02:41:16;;;;;;;2.67;1.80;;;29.20;55.60;;;;;;4994402;28;20053;-70
2023/08/07 02:43:42;;;;;;;2.05;1.85;;;29.20;55.60;;;;;;4994164;28;20046;-70
2023/08/07 02:46:09;;;;;;;1.95;1.80;;;29.20;55.60;;;;;;4992792;28;20038;-70
2023/08/07 02:48:35;;;;;;;2.05;1.85;;;29.30;55.60;;;;;;4992813;28;20386;-70
2023/08/07 02:51:01;;;;;;;3.65;2.50;;;29.40;55.50;;;;;;4994217;28;20557;-70
2023/08/07 02:53:27;;;;;;;3.28;2.08;;;29.30;55.50;;;;;;4994163;28;20147;-70
2023/08/07 02:55:53;;;;;;;2.60;2.20;;;29.20;55.50;;;;;;4993848;28;20047;-68
2023/08/07 02:58:20;;;;;;;3.05;2.17;;;29.20;55.50;;;;;;4993830;28;20038;-70
2023/08/07 03:00:46;;;;;;;2.70;2.50;;;29.30;55.50;;;;;;4992725;28;20042;-70
2023/08/07 03:03:12;;;;;;;2.38;2.00;;;29.20;55.40;;;;;;5009148;28;20058;-70
2023/08/07 03:05:38;;;;;;;2.63;2.10;;;29.20;55.30;;;;;;4992754;28;20077;-70
2023/08/07 03:08:04;;;;;;;6.20;2.28;;;29.20;55.20;;;;;;4993579;28;20451;-70
2023/08/07 03:10:30;;;;;;;2.42;2.15;;;29.00;55.30;;;;;;4992468;28;20089;-70
2023/08/07 03:12:56;;;;;;;5.43;2.30;;;29.10;55.50;;;;;;4993497;28;20030;-70
2023/08/07 03:15:22;;;;;;;3.28;2.28;;;29.10;55.50;;;;;;4992544;28;20070;-70
2023/08/07 03:17:49;;;;;;;11.98;2.70;;;29.00;55.50;;;;;;4993305;28;20065;-70
2023/08/07 03:20:15;;;;;;;3.67;2.63;;;29.00;55.60;;;;;;4992449;28;20042;-70
2023/08/07 03:22:41;;;;;;;2.38;2.17;;;29.10;55.60;;;;;;4991630;28;20612;-70
2023/08/07 03:25:07;;;;;;;2.05;1.85;;;29.10;55.60;;;;;;4991862;28;20092;-70
2023/08/07 03:27:34;;;;;;;2.72;2.05;;;29.10;55.60;;;;;;4991918;28;20038;-69
2023/08/07 03:30:00;;;;;;;4.50;2.30;;;29.10;55.60;;;;;;4993468;28;20039;-70
2023/08/07 03:32:28;;;;;;;3.53;2.30;;;29.10;55.60;;;;;;4991648;28;20093;-70
2023/08/07 03:34:55;;;;;;;3.47;2.15;;;29.10;55.60;;;;;;4991952;28;20046;-70
2023/08/07 03:37:22;;;;;;;6.32;2.33;;;29.10;55.60;;;;;;5008237;28;20038;-70
2023/08/07 03:39:48;;;;;;;4.63;2.35;;;29.10;55.60;;;;;;4991699;28;20106;-70
2023/08/07 03:42:15;;;;;;;2.20;2.00;;;29.20;55.60;;;;;;4991780;28;20025;-70
2023/08/07 03:44:43;;;;;;;2.53;2.33;;;29.20;55.60;;;;;;4991577;28;20201;-70
2023/08/07 03:47:09;;;;;;;3.22;2.03;;;29.10;55.60;;;;;;4991706;28;20113;-69
2023/08/07 03:49:36;;;;;;;2.67;2.05;;;29.30;55.60;;;;;;4991346;28;20030;-68
2023/08/07 03:52:03;;;;;;;2.67;2.40;;;29.20;55.50;;;;;;5007924;28;20034;-68
2023/08/07 03:54:29;;;;;;;3.67;3.13;;;29.30;55.00;;;;;;4992731;28;20076;-68
2023/08/07 03:56:55;;;;;;;3.00;2.80;;;29.10;54.40;;;;;;5007650;28;20045;-68
2023/08/07 03:59:22;;;;;;;4.28;3.13;;;29.20;54.10;;;;;;4991192;28;20507;-68
2023/08/07 04:01:48;;;;;;;3.85;2.78;;;29.00;54.10;;;;;;5023052;28;20051;-69
2023/08/07 04:04:17;;;;;;;3.00;2.72;;;29.10;53.60;;;;;;4992643;28;20034;-67
2023/08/07 04:06:55;;;;;;;4.20;3.03;;;29.00;53.90;;;;;;4991292;28;20041;-68
2023/08/07 04:09:21;;;;;;;3.47;3.10;;;28.90;53.50;;;;;;4992420;28;20402;-68
2023/08/07 04:11:47;;;;;;;3.38;2.97;;;29.00;54.10;;;;;;4992634;28;20120;-69
2023/08/07 04:14:16;;;;;;;4.80;3.13;;;28.80;53.90;;;;;;4992623;28;20076;-71
2023/08/07 04:16:42;;;;;;;3.80;3.50;;;28.90;54.20;;;;;;5007522;28;20500;-67
2023/08/07 04:19:10;;;;;;;3.17;2.92;;;29.30;58.80;;;;;;5007477;28;20478;-68
2023/08/07 04:21:36;;;;;;;5.57;3.53;;;29.80;59.60;;;;;;4992637;28;20038;-68
2023/08/07 04:24:07;;;;;;;3.75;3.38;;;30.10;64.30;;;;;;4991028;28;20054;-67
2023/08/07 04:26:34;;;;;;;3.88;3.58;;;29.90;57.60;;;;;;5007419;28;20037;-68
2023/08/07 04:29:00;;;;;;;4.88;3.15;;;29.80;55.90;;;;;;4992042;28;20452;-67
2023/08/07 04:31:26;;;;;;;5.63;3.70;;;29.70;55.80;;;;;;4992145;28;20069;-70
2023/08/07 04:33:52;;;;;;;4.00;3.60;;;29.60;55.40;;;;;;4992157;28;20054;-70
2023/08/07 04:36:20;;;;;;;4.15;3.53;;;29.40;55.40;;;;;;4992011;28;20061;-71
2023/08/07 04:38:46;;;;;;;4.68;3.40;;;29.40;55.50;;;;;;4991842;28;20126;-70
2023/08/07 04:41:13;;;;;;;4.05;3.53;;;29.50;55.50;;;;;;4992098;28;20094;-69
2023/08/07 04:43:39;;;;;;;3.83;2.95;;;29.40;55.40;;;;;;4991948;28;20130;-71
2023/08/07 04:46:05;;;;;;;3.47;2.53;;;29.40;55.40;;;;;;4991976;28;20437;-70
2023/08/07 04:48:32;;;;;;;3.22;2.88;;;29.40;55.50;;;;;;4991853;28;20397;-70
2023/08/07 04:50:59;;;;;;;3.65;3.28;;;29.50;55.50;;;;;;4992000;28;20038;-71
2023/08/07 04:53:25;;;;;;;3.67;3.15;;;29.40;55.60;;;;;;4991731;28;20070;-70
2023/08/07 04:55:51;;;;;;;3.08;2.78;;;29.50;55.70;;;;;;4991778;28;20580;-70
2023/08/07 04:58:17;;;;;;;4.35;2.75;;;29.50;55.90;;;;;;4991977;28;20114;-70
2023/08/07 05:00:43;;;;;;;3.80;2.92;;;29.40;56.10;;;;;;4991699;28;20038;-68
2023/08/07 05:03:10;;;;;;;3.17;2.78;;;29.40;56.20;;;;;;4991809;28;20023;-68
2023/08/07 05:05:36;;;;;;;2.97;2.63;;;29.40;56.10;;;;;;4991491;28;20505;-68
2023/08/07 05:08:02;;;;;;;3.63;2.70;;;29.40;54.10;;;;;;4991545;28;20501;-68
2023/08/07 05:10:28;;;;;;;2.75;2.40;;;29.30;51.90;;;;;;4991590;28;20096;-68
2023/08/07 05:12:55;;;;;;;2.63;2.42;;;29.20;51.10;;;;;;4991685;28;20038;-69
2023/08/07 05:15:23;;;;;;;3.35;2.70;;;29.00;51.10;;;;;;5005747;28;20042;-70
2023/08/07 05:17:50;;;;;;;3.53;2.08;;;29.00;53.70;;;;;;5022236;28;20049;-68
2023/08/07 05:20:17;;;;;;;2.90;2.60;;;29.30;55.20;;;;;;4991737;28;20108;-68
2023/08/07 05:22:43;;;;;;;2.45;2.25;;;29.50;55.30;;;;;;5022030;28;20092;-69
2023/08/07 05:25:15;;;;;;;2.80;2.60;;;29.90;55.90;;;;;;4990585;28;20423;-69
2023/08/07 05:27:47;;;;;;;4.38;2.67;;;30.00;56.20;;;;;;4991462;28;20027;-69
2023/08/07 05:30:14;;;;;;;4.37;3.33;;;30.10;59.10;;;;;;4991383;28;20125;-68
2023/08/07 05:32:49;;;;;;;3.53;3.22;;;29.90;58.70;;;;;;4991417;28;20280;-69
2023/08/07 05:35:15;;;;;;;4.53;3.97;;;29.80;59.60;;;;;;4991782;28;20474;-69
2023/08/07 05:37:41;;;;;;;5.68;5.00;;;29.90;60.40;;;;;;4991369;28;20509;-69
2023/08/07 05:40:08;;;;;;;3.85;3.38;;;29.80;61.30;;;;;;4991359;28;20034;-70
2023/08/07 05:42:34;;;;;;;5.35;3.10;;;29.90;60.80;;;;;;4991499;28;20533;-68
2023/08/07 05:45:01;;;;;;;3.90;3.53;;;29.80;59.80;;;;;;4991241;28;20047;-69
2023/08/07 05:47:27;;;;;;;3.17;2.88;;;29.70;60.10;;;;;;4992634;28;20126;-69
2023/08/07 05:49:53;;;;;;;7.70;3.22;;;29.90;57.70;;;;;;4995385;28;20031;-69
2023/08/07 05:52:20;;;;;;;4.15;2.42;;;29.80;56.80;;;;;;4995446;28;20042;-68
2023/08/07 05:54:46;;;;;;;2.15;1.80;;;29.60;55.90;;;;;;4995266;28;20038;-69
2023/08/07 05:57:21;;;;;;;2.25;2.00;;;29.50;55.80;;;;;;4995109;28;20490;-69
2023/08/07 05:59:47;;;;;;;2.83;1.90;;;29.70;55.90;;;;;;4994895;28;20038;-69
2023/08/07 06:02:13;;;;;;;2.08;1.65;;;29.60;55.90;;;;;;4994874;28;20113;-69
2023/08/07 06:04:40;;;;;;;3.60;1.92;;;29.70;56.00;;;;;;5009868;28;20526;-69
2023/08/07 06:07:07;;;;;;;2.13;1.90;;;29.50;56.10;;;;;;4994991;28;20069;-67
2023/08/07 06:09:33;;;;;;;3.25;1.77;;;29.70;56.20;;;;;;4994451;28;20121;-69
2023/08/07 06:11:59;;;;;;;1.95;1.60;;;29.50;56.90;;;;;;4994798;28;20034;-69
2023/08/07 06:14:25;;;;;;;2.83;1.35;;;29.60;56.80;;;;;;4994712;28;20479;-68
2023/08/07 06:16:52;;;;;;;3.70;2.85;;;29.50;56.70;;;;;;4994637;28;20113;-68
2023/08/07 06:19:28;;;;;;;1.65;1.42;;;29.50;56.70;;;;;;5025242;28;20046;-67
2023/08/07 06:21:54;;;;;;;6.65;2.17;;;29.50;57.20;;;;;;4994706;28;20045;-68
2023/08/07 06:24:20;;;;;;;4.72;1.48;;;29.40;57.20;;;;;;4994245;28;20046;-69
2023/08/07 06:26:46;;;;;;;1.95;1.10;;;29.40;55.50;;;;;;4994561;28;20046;-69
2023/08/07 06:29:12;;;;;;;4.25;1.50;;;29.30;54.40;;;;;;4994667;28;20034;-69
2023/08/07 06:31:39;;;;;;;1.05;0.98;;;29.30;54.20;;;;;;4994351;28;20077;-68
2023/08/07 06:34:05;;;;;;;1.85;1.33;;;29.40;54.60;;;;;;4994373;28;20070;-70
2023/08/07 06:36:31;;;;;;;1.13;1.02;;;29.30;54.70;;;;;;4994287;28;20437;-68
2023/08/07 06:38:57;;;;;;;1.55;1.45;;;29.20;54.50;;;;;;5007269;28;20041;-70
2023/08/07 06:41:23;;;;;;;0.90;0.90;;;29.40;54.50;;;;;;4997918;28;20030;-70
2023/08/07 06:43:51;;;;;;;1.02;0.93;;;29.40;54.40;;;;;;4995043;28;20073;-69
2023/08/07 06:46:18;;;;;;;0.70;0.70;;;29.40;54.40;;;;;;5013905;28;20040;-69
2023/08/07 06:48:44;;;;;;;1.30;1.20;;;29.30;54.30;;;;;;5012579;28;20366;-70
2023/08/07 06:51:10;;;;;;;1.50;1.40;;;29.40;54.20;;;;;;5013675;28;20485;-71
2023/08/07 06:53:36;;;;;;;1.35;0.85;;;29.30;54.00;;;;;;5002708;28;20398;-68
2023/08/07 06:56:02;;;;;;;1.20;1.10;;;29.40;52.40;;;;;;4994087;28;20039;-63
2023/08/07 06:58:28;;;;;;;0.60;0.60;;;29.40;50.80;;;;;;4992784;28;20038;-66
2023/08/07 07:01:00;;;;;;;1.65;0.65;;;29.20;49.40;;;;;;4993394;28;20498;-66
2023/08/07 07:03:26;;;;;;;1.30;0.90;;;29.00;49.00;;;;;;4998932;28;20046;-65
2023/08/07 07:05:52;;;;;;;2.10;0.75;;;29.00;49.20;;;;;;4993859;28;20102;-65
2023/08/07 07:08:19;;;;;;;1.65;0.80;;;28.90;48.30;;;;;;4993704;28;20042;-68
2023/08/07 07:10:45;;;;;;;2.03;0.73;;;28.80;48.10;;;;;;5005299;28;20091;-68
2023/08/07 07:13:11;;;;;;;0.88;0.70;;;28.80;48.80;;;;;;5013444;28;20018;-68
2023/08/07 07:15:37;;;;;;;2.65;0.70;;;28.80;49.10;;;;;;5013367;28;20033;-69
2023/08/07 07:18:03;;;;;;;1.30;1.00;;;28.80;49.90;;;;;;5001434;28;20085;-68
2023/08/07 07:20:30;;;;;;;2.22;1.73;;;28.90;49.10;;;;;;4990996;28;20050;-69
2023/08/07 07:22:56;;;;;;;1.52;0.70;;;28.60;48.80;;;;;;4990920;28;20532;-68
2023/08/07 07:25:22;;;;;;;1.55;0.70;;;28.70;50.70;;;;;;4990788;28;20047;-68
2023/08/07 07:27:48;;;;;;;0.90;0.60;;;28.60;49.70;;;;;;4990985;28;20149;-70
2023/08/07 07:30:14;;;;;;;0.73;0.73;;;28.60;49.40;;;;;;4974426;28;20039;-68
2023/08/07 07:32:40;;;;;;;2.08;0.90;;;28.70;49.30;;;;;;4974419;28;20073;-69
2023/08/07 07:35:07;;;;;;;0.75;0.68;;;28.70;49.40;;;;;;4990685;28;20117;-70
2023/08/07 07:37:33;;;;;;;1.23;0.60;;;28.60;49.60;;;;;;4990530;28;20108;-70
2023/08/07 07:40:09;;;;;;;0.70;0.70;;;28.60;49.30;;;;;;4990498;28;20046;-69
2023/08/07 07:42:36;;;;;;;0.85;0.80;;;28.50;48.60;;;;;;4974326;28;20045;-68
2023/08/07 07:45:02;;;;;;;0.60;0.60;;;28.60;48.40;;;;;;5003251;28;20204;-69
2023/08/07 07:47:28;;;;;;;0.43;0.40;;;28.50;49.10;;;;;;5010018;28;20595;-69
2023/08/07 07:50:07;;;;;;;0.50;0.47;;;28.50;50.30;;;;;;5012061;28;20034;-69
2023/08/07 07:52:33;;;;;;;0.35;0.35;;;28.50;49.40;;;;;;5012473;28;20374;-69
2023/08/07 07:54:59;;;;;;;0.40;0.40;;;28.40;48.60;;;;;;5012546;28;20048;-69
2023/08/07 07:57:26;;;;;;;0.50;0.50;;;28.50;48.40;;;;;;5012274;28;20040;-69
2023/08/07 07:59:52;;;;;;;0.50;0.50;;;28.40;48.40;;;;;;5012303;28;20503;-69
2023/08/07 08:02:18;;;;;;;0.65;0.50;;;28.60;47.90;;;;;;5012215;28;20047;-69
2023/08/07 08:04:44;;;;;;;0.93;0.50;;;28.60;47.50;;;;;;5027279;28;20506;-69
2023/08/07 08:07:10;;;;;;;0.50;0.50;;;28.60;46.90;;;;;;5012349;28;20044;-69
2023/08/07 08:09:57;;;;;;;0.40;0.40;;;28.70;45.60;;;;;;4995641;28;20042;-68
2023/08/07 08:12:23;;;;;;;1.00;0.80;;;28.60;46.30;;;;;;4992358;28;20031;-69
2023/08/07 08:14:49;;;;;;;0.50;0.50;;;28.70;45.80;;;;;;4992476;28;20109;-68
2023/08/07 08:17:15;;;;;;;2.00;0.70;;;28.70;46.00;;;;;;4991117;28;20125;-67
2023/08/07 08:19:41;;;;;;;0.40;0.40;;;28.70;45.80;;;;;;4992138;28;20030;-68
2023/08/07 08:22:07;;;;;;;1.58;0.50;;;28.70;45.90;;;;;;4992313;28;20069;-67
2023/08/07 08:24:34;;;;;;;1.05;0.40;;;28.70;46.20;;;;;;4990964;28;20116;-68
2023/08/07 08:27:00;;;;;;;0.47;0.40;;;28.80;46.60;;;;;;4992165;28;20030;-68
2023/08/07 08:29:30;;;;;;;0.50;0.50;;;28.80;45.70;;;;;;4990558;28;20053;-69
2023/08/07 08:31:59;;;;;;;2.28;0.57;;;28.80;46.10;;;;;;4992026;28;20061;-69
2023/08/07 08:34:27;;;;;;;0.38;0.38;;;28.80;46.60;;;;;;4990833;28;20113;-67
2023/08/07 08:36:53;;;;;;;1.60;0.43;;;28.90;46.00;;;;;;4992090;28;20030;-68
2023/08/07 08:39:19;;;;;;;0.32;0.30;;;28.80;46.10;;;;;;4992043;28;20037;-69
2023/08/07 08:41:49;;;;;;;0.40;0.40;;;28.70;47.70;;;;;;5005835;28;20046;-67
2023/08/07 08:44:19;;;;;;;0.55;0.40;;;28.90;48.10;;;;;;4998307;28;20624;-67
2023/08/07 08:46:49;;;;;;;11.07;1.20;;;29.30;46.80;;;;;;5011774;28;20022;-67
2023/08/07 08:49:20;;;;;;;10.13;1.08;;;29.20;48.40;;;;;;5011480;28;20048;-69
2023/08/07 08:51:49;;;;;;;4.32;1.25;;;29.30;50.90;;;;;;5011829;28;20091;-69
2023/08/07 08:54:16;;;;;;;4.72;0.85;;;29.40;52.70;;;;;;5011399;28;20034;-69
2023/08/07 08:56:45;;;;;;;10.98;2.85;;;29.40;46.70;;;;;;5011405;28;20022;-67
2023/08/07 08:59:11;;;;;;;5.47;0.95;;;29.50;46.80;;;;;;5011569;28;20033;-68
2023/08/07 09:01:38;;;;;;;1.52;0.68;;;29.50;46.50;;;;;;5009348;28;20347;-69
2023/08/07 09:04:04;;;;;;;1.65;0.93;;;29.60;44.50;;;;;;5011100;28;20474;-68
2023/08/07 09:06:32;;;;;;;0.50;0.50;;;29.80;43.70;;;;;;5011076;28;20537;-67
2023/08/07 09:09:00;;;;;;;0.70;0.65;;;29.60;43.30;;;;;;5004374;28;20034;-67
2023/08/07 09:11:27;;;;;;;0.40;0.35;;;29.70;43.00;;;;;;5006426;28;20061;-67
2023/08/07 09:14:06;;;;;;;0.20;0.20;;;29.70;42.80;;;;;;4991422;28;20501;-67
2023/08/07 09:16:33;;;;;;;0.50;0.47;;;29.60;42.40;;;;;;4991466;28;20406;-68
2023/08/07 09:19:00;;;;;;;0.55;0.55;;;29.80;42.90;;;;;;4991638;28;20026;-67
2023/08/07 09:21:27;;;;;;;0.50;0.50;;;29.70;42.60;;;;;;4990656;28;20038;-69
2023/08/07 09:23:54;;;;;;;0.30;0.30;;;29.90;42.20;;;;;;4991331;28;20181;-67
2023/08/07 09:26:24;;;;;;;0.30;0.30;;;29.90;42.60;;;;;;5006552;28;20046;-68
2023/08/07 09:28:53;;;;;;;0.30;0.30;;;29.80;43.40;;;;;;4991637;28;20088;-66
2023/08/07 09:31:20;;;;;;;0.40;0.40;;;29.90;42.90;;;;;;4991336;28;20031;-67
2023/08/07 09:33:48;;;;;;;0.40;0.40;;;29.90;42.30;;;;;;4989754;28;20050;-67
2023/08/07 09:36:14;;;;;;;1.67;0.30;;;29.80;42.40;;;;;;4991266;28;20042;-66
2023/08/07 09:38:40;;;;;;;0.20;0.20;;;29.90;42.30;;;;;;4991046;28;20402;-68
2023/08/07 09:41:07;;;;;;;0.43;0.40;;;29.80;42.30;;;;;;5004707;28;20047;-67
2023/08/07 09:43:36;;;;;;;0.75;0.50;;;29.80;42.00;;;;;;5005113;28;20145;-67
2023/08/07 09:46:10;;;;;;;0.40;0.40;;;29.80;41.40;;;;;;4990369;28;20042;-68
2023/08/07 09:48:43;;;;;;;1.63;0.50;;;29.80;42.00;;;;;;4991414;28;20121;-69
2023/08/07 09:51:10;;;;;;;0.43;0.43;;;29.60;42.60;;;;;;4991500;28;20081;-68
2023/08/07 09:53:37;;;;;;;0.38;0.38;;;29.80;42.70;;;;;;4991350;28;20050;-69
2023/08/07 09:56:03;;;;;;;0.50;0.50;;;29.80;42.90;;;;;;5006146;28;20454;-67
2023/08/07 09:58:30;;;;;;;0.30;0.30;;;29.70;43.30;;;;;;4990081;28;20121;-67
2023/08/07 10:00:59;;;;;;;0.60;0.60;;;29.90;43.20;;;;;;4991268;28;20038;-67
2023/08/07 10:03:28;;;;;;;0.30;0.30;;;29.80;43.20;;;;;;4991194;28;20039;-67
2023/08/07 10:05:55;;;;;;;0.43;0.40;;;29.90;45.50;;;;;;4991365;28;20026;-68
2023/08/07 10:08:22;;;;;;;1.65;0.50;;;30.30;48.40;;;;;;4991255;28;20029;-67
2023/08/07 10:10:48;;;;;;;0.50;0.50;;;30.50;43.30;;;;;;4991053;28;20042;-67
2023/08/07 10:13:14;;;;;;;0.95;0.40;;;30.30;40.90;;;;;;4991385;28;20426;-67
2023/08/07 10:15:42;;;;;;;1.88;0.35;;;30.20;41.10;;;;;;4991078;28;20050;-68
2023/08/07 10:18:08;;;;;;;0.30;0.30;;;30.10;41.10;;;;;;4991048;28;20038;-68
2023/08/07 10:20:35;;;;;;;0.88;0.60;;;30.10;42.00;;;;;;4991002;28;20045;-68
2023/08/07 10:23:07;;;;;;;0.30;0.30;;;30.00;42.30;;;;;;4991222;28;20030;-69
2023/08/07 10:25:37;;;;;;;1.95;0.47;;;30.00;42.50;;;;;;4990947;28;20084;-67
2023/08/07 10:28:06;;;;;;;0.40;0.40;;;30.10;42.50;;;;;;4991010;28;20397;-68
2023/08/07 10:30:33;;;;;;;1.02;0.50;;;30.10;42.70;;;;;;4990888;28;20046;-67
2023/08/07 10:33:00;;;;;;;1.33;0.55;;;30.10;42.80;;;;;;4992346;28;20513;-67
2023/08/07 10:35:30;;;;;;;0.70;0.63;;;30.20;45.50;;;;;;4993078;28;20490;-67
2023/08/07 10:38:07;;;;;;;0.40;0.40;;;30.20;48.50;;;;;;4994317;28;20026;-67
2023/08/07 10:40:33;;;;;;;0.52;0.40;;;30.30;49.10;;;;;;4994002;28;20461;-67
2023/08/07 10:43:13;;;;;;;0.57;0.57;;;30.30;46.80;;;;;;4992516;28;20561;-68
2023/08/07 10:45:42;;;;;;;0.90;0.40;;;30.40;47.00;;;;;;5011764;28;20042;-69
2023/08/07 10:48:12;;;;;;;0.55;0.50;;;30.10;46.60;;;;;;5011456;28;20410;-69
2023/08/07 10:50:54;;;;;;;32.33;14.10;;;30.20;47.50;;;;;;5013511;28;20038;-72
2023/08/07 10:53:34;;;;;;;1.88;1.52;;;30.20;46.70;;;;;;5028565;28;20448;-68
2023/08/07 10:56:07;;;;;;;5.18;0.70;;;30.20;46.30;;;;;;5028498;28;20030;-69
2023/08/07 10:58:38;;;;;;;1.42;0.60;;;30.10;46.20;;;;;;5012374;28;20038;-69
2023/08/07 11:01:19;;;;;;;4.28;1.23;;;30.20;46.00;;;;;;5011778;28;20092;-69
2023/08/07 11:03:54;;;;;;;2.38;0.80;;;30.20;46.00;;;;;;5011478;28;20042;-69
2023/08/07 11:06:31;;;;;;;1.63;0.95;;;30.20;47.40;;;;;;5013260;28;20037;-69
2023/08/07 11:08:58;;;;;;;3.53;0.57;;;30.10;49.30;;;;;;5007005;28;20029;-69
2023/08/07 11:11:26;;;;;;;0.47;0.47;;;30.10;47.40;;;;;;4993295;28;20061;-69
2023/08/07 11:13:52;;;;;;;0.50;0.50;;;30.20;47.20;;;;;;4976297;28;20104;-69
2023/08/07 11:16:22;;;;;;;1.83;0.50;;;30.20;47.20;;;;;;4993554;28;20104;-69
2023/08/07 11:18:49;;;;;;;0.73;0.60;;;30.10;46.90;;;;;;4993515;28;20128;-69
2023/08/07 11:21:15;;;;;;;1.88;0.90;;;30.10;47.40;;;;;;5007471;28;20100;-68
2023/08/07 11:23:43;;;;;;;1.40;0.50;;;30.20;47.40;;;;;;4993311;28;20129;-68
2023/08/07 11:26:10;;;;;;;1.48;0.93;;;30.00;47.30;;;;;;4992227;28;20030;-69
2023/08/07 11:28:36;;;;;;;0.70;0.60;;;30.10;47.40;;;;;;4993396;28;20092;-69
2023/08/07 11:31:03;;;;;;;0.45;0.45;;;30.10;47.30;;;;;;5007056;28;20046;-69
2023/08/07 11:33:29;;;;;;;0.30;0.30;;;30.10;47.20;;;;;;4992858;28;20061;-69
2023/08/07 11:35:55;;;;;;;0.30;0.30;;;30.10;47.20;;;;;;4993375;28;20082;-69
2023/08/07 11:38:31;;;;;;;1.25;0.60;;;30.10;47.30;;;;;;4993351;28;20030;-69
2023/08/07 11:41:05;;;;;;;0.95;0.60;;;30.20;47.30;;;;;;4992222;28;20038;-68
2023/08/07 11:43:33;;;;;;;0.85;0.75;;;30.00;47.30;;;;;;4993056;28;20493;-68
2023/08/07 11:46:02;;;;;;;0.65;0.40;;;29.90;46.90;;;;;;5012223;28;20034;-69
2023/08/07 11:48:29;;;;;;;2.58;0.90;;;29.90;47.10;;;;;;5012670;28;20030;-69
2023/08/07 11:50:57;;;;;;;1.10;1.10;;;30.10;47.60;;;;;;5012757;28;20026;-68
2023/08/07 11:53:28;;;;;;;1.33;1.23;;;30.10;47.60;;;;;;5012393;28;20033;-69
2023/08/07 11:55:59;;;;;;;1.98;0.90;;;30.00;47.60;;;;;;5012502;28;20113;-67
2023/08/07 11:58:27;;;;;;;2.70;0.77;;;30.00;47.60;;;;;;5027412;28;20041;-69
2023/08/07 12:00:54;;;;;;;0.73;0.73;;;29.90;47.00;;;;;;5012635;28;20034;-69
2023/08/07 12:03:38;;;;;;;0.77;0.77;;;29.90;47.20;;;;;;5011917;28;20022;-69
2023/08/07 12:06:06;;;;;;;2.30;0.65;;;30.00;48.00;;;;;;5012148;28;20120;-68
2023/08/07 12:08:41;;;;;;;1.27;0.70;;;29.90;47.40;;;;;;5007600;28;20034;-68
2023/08/07 12:11:11;;;;;;;0.85;0.85;;;29.90;47.30;;;;;;4992616;28;20042;-68
2023/08/07 12:13:42;;;;;;;0.93;0.93;;;29.80;47.20;;;;;;4992302;28;20500;-67
2023/08/07 12:16:09;;;;;;;0.80;0.80;;;30.10;47.70;;;;;;4992073;28;20042;-68
2023/08/07 12:18:37;;;;;;;0.73;0.73;;;29.90;47.00;;;;;;4992158;28;20494;-67
2023/08/07 12:21:06;;;;;;;0.77;0.77;;;30.00;47.60;;;;;;4992394;28;20038;-68
2023/08/07 12:23:37;;;;;;;0.60;0.60;;;29.90;47.00;;;;;;4991890;28;20026;-69
2023/08/07 12:26:06;;;;;;;0.70;0.70;;;30.00;47.70;;;;;;4992476;28;20042;-69
2023/08/07 12:28:44;;;;;;;2.85;0.80;;;29.90;47.20;;;;;;5006961;28;20037;-69
2023/08/07 12:31:10;;;;;;;1.83;1.00;;;29.90;47.00;;;;;;4992131;28;20132;-68
2023/08/07 12:33:37;;;;;;;0.77;0.70;;;29.80;47.10;;;;;;4991964;28;20086;-69
2023/08/07 12:36:03;;;;;;;0.60;0.60;;;29.80;47.20;;;;;;4991887;28;20046;-69
2023/08/07 12:38:29;;;;;;;1.45;0.80;;;29.80;47.20;;;;;;4991854;28;20037;-69
2023/08/07 12:40:56;;;;;;;1.10;1.00;;;29.70;47.30;;;;;;4992119;28;20034;-69
2023/08/07 12:43:22;;;;;;;7.35;1.95;;;29.70;51.00;;;;;;4991748;28;20035;-69
2023/08/07 12:45:48;;;;;;;3.22;1.67;;;29.70;52.60;;;;;;5010510;28;20069;-69
2023/08/07 12:48:14;;;;;;;1.60;0.75;;;29.60;51.40;;;;;;5011462;28;20034;-68
2023/08/07 12:50:41;;;;;;;2.35;1.33;;;29.80;50.40;;;;;;5011656;28;20036;-68